This is the latest recevied weather packets stored in our database for station/object LRSM. If no packets are shown the sender has not sent any weather packets the latest 10 day(s).
| Time | Temp. | Humidity | Pressure | Rain* | Wind** | Luminosity | Snow |
|---|---|---|---|---|---|---|---|
| 1777524512 | 5° C | 49% | 1025 hPa | - | - | - | - |
| 1777523612 | 5° C | 49% | 1025 hPa | - | - | - | - |
| 1777522712 | 2.22° C | 60% | 1025 hPa | - | - | - | - |
| 1777521812 | 2.22° C | 60% | 1025 hPa | - | - | - | - |
| 1777520913 | 1.11° C | 60% | 1025 hPa | - | - | - | - |
| 1777520012 | 1.11° C | 60% | 1025 hPa | - | - | - | - |
| 1777519114 | 2.22° C | 56% | 1025 hPa | - | - | - | - |
| 1777518212 | 2.22° C | 56% | 1025 hPa | - | - | - | - |
| 1777517313 | 3.89° C | 52% | 1024 hPa | - | - | - | - |
| 1777516413 | 3.89° C | 52% | 1024 hPa | - | - | - | - |
| 1777515512 | 2.78° C | 56% | 1024 hPa | - | - | - | - |
| 1777514612 | 2.78° C | 56% | 1024 hPa | - | - | - | - |
| 1777513712 | 3.89° C | 52% | 1024 hPa | - | - | - | - |
| 1777511912 | 2.78° C | 52% | 1024 hPa | - | - | - | - |
| 1777510113 | 3.89° C | 48% | 1024 hPa | - | - | - | - |
| 1777508312 | 5° C | 45% | 1024 hPa | - | - | - | - |
| 1777505610 | 3.89° C | 48% | 1024 hPa | - | - | - | - |
| 1777502012 | 5° C | 45% | 1024 hPa | - | - | - | - |
| 1777501112 | 6.11° C | 42% | 1024 hPa | - | - | - | - |
| 1777500213 | 6.11° C | 42% | 1024 hPa | - | - | - | - |
| 1777498412 | 6.11° C | 42% | 1023 hPa | - | - | - | - |
| 1777497513 | 7.22° C | 39% | 1023 hPa | - | - | - | - |
| 1777494813 | 7.22° C | 39% | 1023 hPa | - | - | - | - |
| 1777493912 | 7.78° C | 34% | 1022 hPa | - | - | - | - |
| 1777493012 | 7.78° C | 34% | 1022 hPa | - | - | - | - |
* Rain since midnight (hover to see other rain measurements)
** Current wind speed in m/s (hover to see current wind gust speed)